Time;durP1;ratioP1;P1;durP2;ratioP2;P2;SDS_P1;SDS_P2;PMS_P1;PMS_P2;Temp;Humidity;BMP_temperature;BMP_pressure;BME280_temperature;BME280_humidity;BME280_pressure;Samples;Min_cycle;Max_cycle;Signal;HPM_P1;HPM_P2
2023/12/18 00:00:22;;;;;;;24.55;12.77;;;7.00;99.90;;;;;;5048741;28;20459;-72
2023/12/18 00:02:47;;;;;;;27.00;12.02;;;7.00;99.90;;;;;;5048817;28;20401;-73
2023/12/18 00:05:13;;;;;;;27.05;11.88;;;7.00;99.90;;;;;;5048663;28;20017;-72
2023/12/18 00:07:39;;;;;;;24.35;11.68;;;7.00;99.90;;;;;;5047739;28;20017;-72
2023/12/18 00:10:05;;;;;;;18.35;11.07;;;7.00;99.90;;;;;;5048365;28;20021;-72
2023/12/18 00:12:31;;;;;;;21.20;11.80;;;7.00;99.90;;;;;;5048670;28;20013;-72
2023/12/18 00:14:56;;;;;;;25.38;12.65;;;7.00;99.90;;;;;;5048044;28;20055;-72
2023/12/18 00:17:22;;;;;;;21.17;11.50;;;7.00;99.90;;;;;;5048546;28;20035;-72
2023/12/18 00:19:48;;;;;;;23.10;12.05;;;7.00;99.90;;;;;;5048357;28;20070;-72
2023/12/18 00:22:14;;;;;;;23.52;12.60;;;7.00;99.90;;;;;;5048706;28;20025;-72
2023/12/18 00:24:39;;;;;;;23.00;11.60;;;7.00;99.90;;;;;;5048015;28;20032;-72
2023/12/18 00:27:05;;;;;;;32.22;13.38;;;6.90;99.90;;;;;;5048452;28;20390;-72
2023/12/18 00:29:30;;;;;;;20.50;11.80;;;7.00;99.90;;;;;;5047938;28;20029;-72
2023/12/18 00:31:59;;;;;;;24.33;12.05;;;6.90;99.90;;;;;;5051691;28;20028;-72
2023/12/18 00:34:25;;;;;;;21.02;11.88;;;6.90;99.90;;;;;;5047849;28;20094;-72
2023/12/18 00:36:50;;;;;;;22.63;12.40;;;7.00;99.90;;;;;;5046507;28;20596;-72
2023/12/18 00:39:16;;;;;;;28.77;14.07;;;6.90;99.90;;;;;;5047703;28;20031;-72
2023/12/18 00:41:42;;;;;;;22.55;12.40;;;6.90;99.90;;;;;;5048222;28;20481;-73
2023/12/18 00:44:08;;;;;;;21.88;12.73;;;6.90;99.90;;;;;;5047671;28;20040;-72
2023/12/18 00:46:34;;;;;;;25.23;13.50;;;6.90;99.90;;;;;;5046590;28;20031;-72
2023/12/18 00:48:59;;;;;;;24.52;12.18;;;6.90;99.90;;;;;;5047134;28;20025;-72
2023/12/18 00:51:25;;;;;;;23.35;12.23;;;7.00;99.90;;;;;;5046609;28;20478;-72
2023/12/18 00:53:50;;;;;;;27.25;12.70;;;6.90;99.90;;;;;;5047332;28;20025;-72
2023/12/18 00:56:16;;;;;;;26.75;13.00;;;7.00;99.90;;;;;;5047779;28;20067;-72
2023/12/18 00:58:42;;;;;;;24.17;13.02;;;7.00;99.90;;;;;;5047378;28;20033;-72
2023/12/18 01:01:07;;;;;;;24.52;12.63;;;7.00;99.90;;;;;;5046370;28;20051;-72
2023/12/18 01:03:33;;;;;;;23.95;12.20;;;7.00;99.90;;;;;;5047112;28;20106;-72
2023/12/18 01:05:58;;;;;;;22.52;11.77;;;7.00;99.90;;;;;;5047605;28;20097;-72
2023/12/18 01:08:24;;;;;;;22.30;11.98;;;7.00;99.90;;;;;;5045956;28;20025;-72
2023/12/18 01:10:50;;;;;;;24.88;11.55;;;7.00;99.90;;;;;;5047493;28;20048;-72
2023/12/18 01:13:15;;;;;;;28.25;14.27;;;7.10;99.90;;;;;;5047141;28;20569;-72
2023/12/18 01:15:41;;;;;;;25.73;12.90;;;7.10;99.90;;;;;;5047400;28;20387;-72
2023/12/18 01:18:07;;;;;;;26.85;14.10;;;7.10;99.90;;;;;;5047246;28;20052;-72
2023/12/18 01:20:33;;;;;;;23.05;12.38;;;7.10;99.90;;;;;;5045849;28;20493;-72
2023/12/18 01:22:58;;;;;;;23.92;12.05;;;7.10;99.90;;;;;;5047147;28;20029;-72
2023/12/18 01:25:24;;;;;;;22.75;13.48;;;7.10;99.90;;;;;;5046977;28;20032;-72
2023/12/18 01:27:50;;;;;;;21.83;12.23;;;7.10;99.90;;;;;;5047201;28;20530;-72
2023/12/18 01:30:15;;;;;;;29.85;12.63;;;7.10;99.90;;;;;;5046878;28;20025;-73
2023/12/18 01:32:42;;;;;;;23.48;12.15;;;7.10;99.90;;;;;;5047361;28;20021;-72
2023/12/18 01:35:08;;;;;;;25.40;12.07;;;7.10;99.90;;;;;;5046862;28;20096;-72
2023/12/18 01:37:34;;;;;;;24.38;12.30;;;7.10;99.90;;;;;;5046909;28;20597;-72
2023/12/18 01:39:59;;;;;;;28.80;13.63;;;7.20;99.90;;;;;;5046530;28;20025;-72
2023/12/18 01:42:25;;;;;;;21.60;12.70;;;7.10;99.90;;;;;;5047005;28;20064;-72
2023/12/18 01:44:50;;;;;;;22.98;13.30;;;7.20;99.90;;;;;;5046534;28;20040;-69
2023/12/18 01:47:17;;;;;;;24.42;12.75;;;7.20;99.90;;;;;;5047099;28;20363;-71
2023/12/18 01:49:44;;;;;;;24.50;13.02;;;7.20;99.90;;;;;;5046501;28;20436;-72
2023/12/18 01:52:09;;;;;;;30.77;14.30;;;7.20;99.90;;;;;;5046974;28;20044;-72
2023/12/18 01:54:35;;;;;;;24.77;13.75;;;7.20;99.90;;;;;;5046340;28;20052;-72
2023/12/18 01:57:02;;;;;;;21.20;12.18;;;7.20;99.90;;;;;;5046771;28;20100;-72
2023/12/18 01:59:30;;;;;;;23.33;12.75;;;7.20;99.90;;;;;;5046772;28;20032;-72
2023/12/18 02:01:55;;;;;;;24.10;13.15;;;7.20;99.90;;;;;;5046940;28;20386;-72
2023/12/18 02:04:22;;;;;;;22.52;12.82;;;7.20;99.90;;;;;;5046522;28;20033;-72
2023/12/18 02:06:48;;;;;;;22.25;13.68;;;7.20;99.90;;;;;;5046768;28;20021;-72
2023/12/18 02:09:15;;;;;;;22.85;12.32;;;7.20;99.90;;;;;;5050375;28;20056;-72
2023/12/18 02:11:44;;;;;;;24.35;13.95;;;7.20;99.90;;;;;;5044967;28;20021;-72
2023/12/18 02:14:10;;;;;;;25.05;12.25;;;7.30;99.90;;;;;;5046292;28;20643;-72
2023/12/18 02:16:35;;;;;;;24.42;13.15;;;7.30;99.90;;;;;;5045155;28;20036;-72
2023/12/18 02:19:01;;;;;;;23.98;13.57;;;7.20;99.90;;;;;;5050061;28;20041;-71
2023/12/18 02:21:26;;;;;;;27.08;13.27;;;7.30;99.90;;;;;;5047544;28;20493;-71
2023/12/18 02:23:52;;;;;;;23.85;12.60;;;7.20;99.90;;;;;;5046200;28;20494;-72
2023/12/18 02:26:18;;;;;;;30.80;14.90;;;7.30;99.90;;;;;;5046615;28;20104;-72
2023/12/18 02:28:44;;;;;;;24.55;13.05;;;7.30;99.90;;;;;;5046281;28;20421;-72
2023/12/18 02:31:13;;;;;;;24.55;14.20;;;7.30;99.90;;;;;;5049836;28;20078;-73
2023/12/18 02:33:39;;;;;;;25.92;13.52;;;7.30;99.90;;;;;;5050035;28;20033;-72
2023/12/18 02:36:04;;;;;;;19.02;12.90;;;7.30;99.90;;;;;;5049077;28;20017;-72
2023/12/18 02:38:30;;;;;;;29.15;14.40;;;7.30;99.90;;;;;;5050212;28;20029;-72
2023/12/18 02:40:56;;;;;;;24.92;13.32;;;7.30;99.90;;;;;;5050060;28;20499;-72
2023/12/18 02:43:21;;;;;;;23.73;13.02;;;7.30;99.90;;;;;;5048861;28;20048;-72
2023/12/18 02:45:47;;;;;;;20.77;12.55;;;7.30;99.90;;;;;;5050146;28;20056;-72
2023/12/18 02:48:12;;;;;;;22.55;12.45;;;7.30;99.90;;;;;;5050457;28;20378;-72
2023/12/18 02:50:38;;;;;;;24.13;12.43;;;7.40;99.90;;;;;;5048662;28;20082;-72
2023/12/18 02:53:04;;;;;;;24.00;14.13;;;7.30;99.90;;;;;;5050297;28;20017;-72
2023/12/18 02:55:30;;;;;;;22.70;12.98;;;7.40;99.90;;;;;;5049923;28;20436;-72
2023/12/18 02:57:55;;;;;;;25.55;13.43;;;7.40;99.90;;;;;;5049902;28;20555;-73
2023/12/18 03:00:22;;;;;;;23.05;12.27;;;7.40;99.90;;;;;;5048288;28;20055;-72
2023/12/18 03:02:48;;;;;;;27.25;12.73;;;7.40;99.90;;;;;;5049952;28;20542;-72
2023/12/18 03:05:14;;;;;;;30.38;13.48;;;7.40;99.90;;;;;;5049461;28;20107;-72
2023/12/18 03:07:40;;;;;;;27.65;13.88;;;7.40;99.90;;;;;;5048446;28;20025;-71
2023/12/18 03:10:06;;;;;;;28.02;14.02;;;7.40;99.90;;;;;;5049453;28;20017;-72
2023/12/18 03:12:31;;;;;;;27.70;14.00;;;7.40;99.90;;;;;;5048423;28;20074;-72
2023/12/18 03:14:57;;;;;;;28.52;14.70;;;7.40;99.90;;;;;;5049524;28;20025;-71
2023/12/18 03:17:23;;;;;;;22.33;13.48;;;7.40;99.90;;;;;;5049670;28;20025;-72
2023/12/18 03:19:48;;;;;;;23.83;14.45;;;7.40;99.90;;;;;;5049284;28;20036;-71
2023/12/18 03:22:14;;;;;;;24.33;13.25;;;7.40;99.90;;;;;;5049836;28;20035;-73
2023/12/18 03:24:42;;;;;;;25.70;13.77;;;7.40;99.90;;;;;;5049004;28;20108;-72
2023/12/18 03:27:08;;;;;;;25.35;14.65;;;7.40;99.90;;;;;;5049557;28;20024;-72
2023/12/18 03:29:34;;;;;;;26.70;13.05;;;7.40;99.90;;;;;;5046268;28;20043;-72
2023/12/18 03:32:00;;;;;;;24.48;14.00;;;7.40;99.90;;;;;;5049249;28;20017;-72
2023/12/18 03:34:26;;;;;;;27.58;14.43;;;7.40;99.90;;;;;;5041841;28;20029;-72
2023/12/18 03:36:52;;;;;;;24.30;12.38;;;7.40;99.90;;;;;;5049100;28;20045;-72
2023/12/18 03:39:17;;;;;;;26.10;13.90;;;7.40;99.90;;;;;;5048996;28;20058;-72
2023/12/18 03:41:43;;;;;;;27.67;14.55;;;7.40;99.90;;;;;;5047901;28;20424;-72
2023/12/18 03:44:09;;;;;;;26.85;14.88;;;7.40;99.90;;;;;;5048590;28;20045;-72
2023/12/18 03:46:34;;;;;;;27.92;14.52;;;7.40;99.90;;;;;;5048960;28;20021;-72
2023/12/18 03:49:00;;;;;;;27.98;14.32;;;7.40;99.90;;;;;;5049110;28;20021;-72
2023/12/18 03:51:26;;;;;;;27.30;14.02;;;7.40;99.90;;;;;;5049182;28;20013;-72
2023/12/18 03:53:51;;;;;;;24.58;14.15;;;7.40;99.90;;;;;;5047419;28;20021;-72
2023/12/18 03:56:17;;;;;;;24.30;14.93;;;7.40;99.90;;;;;;5048947;28;20044;-72
2023/12/18 03:58:43;;;;;;;34.25;15.15;;;7.40;99.90;;;;;;5048550;28;20052;-72
2023/12/18 04:01:08;;;;;;;29.38;15.27;;;7.40;99.90;;;;;;5047226;28;20048;-72
2023/12/18 04:03:34;;;;;;;26.42;14.63;;;7.40;99.90;;;;;;5047343;28;20029;-72
2023/12/18 04:06:00;;;;;;;30.42;15.68;;;7.40;99.90;;;;;;5047025;28;20017;-72
2023/12/18 04:08:26;;;;;;;28.40;15.77;;;7.40;99.90;;;;;;5048889;28;20027;-72
2023/12/18 04:10:51;;;;;;;28.92;14.60;;;7.50;99.90;;;;;;5048372;28;20021;-72
2023/12/18 04:13:17;;;;;;;28.77;14.15;;;7.40;99.90;;;;;;5047420;28;20432;-72
2023/12/18 04:15:43;;;;;;;28.20;15.10;;;7.40;99.90;;;;;;5047962;28;20092;-72
2023/12/18 04:18:08;;;;;;;30.70;14.90;;;7.50;99.90;;;;;;5046788;28;20079;-72
2023/12/18 04:20:34;;;;;;;33.75;15.95;;;7.50;99.90;;;;;;5048354;28;20021;-71
2023/12/18 04:23:00;;;;;;;23.15;14.93;;;7.50;99.90;;;;;;5047152;28;20025;-72
2023/12/18 04:25:25;;;;;;;26.90;15.70;;;7.40;99.90;;;;;;5048323;28;20106;-72
2023/12/18 04:27:52;;;;;;;29.58;15.73;;;7.40;99.90;;;;;;5048604;28;20050;-71
2023/12/18 04:30:18;;;;;;;25.10;15.13;;;7.40;99.90;;;;;;5046608;28;20032;-72
2023/12/18 04:32:43;;;;;;;27.67;15.13;;;7.40;99.90;;;;;;5048088;28;20029;-72
2023/12/18 04:35:09;;;;;;;28.00;15.07;;;7.40;99.90;;;;;;5048000;28;20131;-72
2023/12/18 04:37:35;;;;;;;28.88;14.93;;;7.40;99.90;;;;;;5046620;28;20049;-72
2023/12/18 04:40:01;;;;;;;25.30;14.80;;;7.40;99.90;;;;;;5046408;28;20132;-72
2023/12/18 04:42:26;;;;;;;34.70;15.77;;;7.40;99.90;;;;;;5048474;28;20488;-72
2023/12/18 04:44:53;;;;;;;33.92;15.75;;;7.40;99.90;;;;;;5045881;28;20171;-72
2023/12/18 04:47:19;;;;;;;26.88;15.20;;;7.40;99.90;;;;;;5046676;28;20075;-72
2023/12/18 04:49:44;;;;;;;31.27;14.38;;;7.40;99.90;;;;;;5047510;28;20013;-72
2023/12/18 04:52:10;;;;;;;26.60;14.60;;;7.40;99.90;;;;;;5047402;28;20047;-72
2023/12/18 04:54:36;;;;;;;32.65;16.30;;;7.40;99.90;;;;;;5047341;28;20029;-72
2023/12/18 04:57:01;;;;;;;26.85;14.43;;;7.40;99.90;;;;;;5047907;28;20029;-72
2023/12/18 04:59:27;;;;;;;29.50;15.88;;;7.40;99.90;;;;;;5046331;28;20029;-72
2023/12/18 05:01:53;;;;;;;30.48;16.50;;;7.40;99.90;;;;;;5046544;28;20410;-72
2023/12/18 05:04:19;;;;;;;30.23;16.58;;;7.40;99.90;;;;;;5047468;28;20087;-72
2023/12/18 05:06:44;;;;;;;32.13;16.80;;;7.40;99.90;;;;;;5047919;28;20017;-72
2023/12/18 05:09:10;;;;;;;29.50;16.13;;;7.40;99.90;;;;;;5047651;28;20074;-72
2023/12/18 05:11:36;;;;;;;25.48;16.42;;;7.50;99.90;;;;;;5047477;28;20054;-72
2023/12/18 05:14:02;;;;;;;32.10;16.08;;;7.40;99.90;;;;;;5045986;28;20052;-72
2023/12/18 05:16:27;;;;;;;24.83;15.23;;;7.40;99.90;;;;;;5045956;28;20629;-71
2023/12/18 05:18:54;;;;;;;25.70;15.50;;;7.50;99.90;;;;;;5045947;28;20108;-72
2023/12/18 05:21:19;;;;;;;31.65;18.02;;;7.40;99.90;;;;;;5047074;28;20064;-72
2023/12/18 05:23:47;;;;;;;28.67;16.33;;;7.40;99.90;;;;;;5047215;28;20040;-72
2023/12/18 05:26:13;;;;;;;22.65;15.95;;;7.40;99.90;;;;;;5047372;28;20051;-72
2023/12/18 05:28:38;;;;;;;26.50;16.30;;;7.40;99.90;;;;;;5047064;28;20466;-72
2023/12/18 05:31:07;;;;;;;27.80;17.02;;;7.40;99.90;;;;;;5046957;28;20470;-72
2023/12/18 05:33:33;;;;;;;32.15;16.60;;;7.40;99.90;;;;;;5047567;28;20031;-72
2023/12/18 05:35:59;;;;;;;27.50;16.88;;;7.40;99.90;;;;;;5047261;28;20021;-72
2023/12/18 05:38:24;;;;;;;28.73;16.77;;;7.40;99.90;;;;;;5046996;28;20425;-72
2023/12/18 05:40:50;;;;;;;33.08;16.75;;;7.40;99.90;;;;;;5047068;28;20016;-72
2023/12/18 05:43:15;;;;;;;33.55;17.92;;;7.40;99.90;;;;;;5047440;28;20067;-72
2023/12/18 05:45:41;;;;;;;32.42;16.42;;;7.40;99.90;;;;;;5046355;28;20079;-72
2023/12/18 05:48:07;;;;;;;27.48;16.60;;;7.40;99.90;;;;;;5047173;28;20663;-72
2023/12/18 05:50:33;;;;;;;35.10;18.52;;;7.40;99.90;;;;;;5046605;28;20585;-72
2023/12/18 05:52:58;;;;;;;28.48;16.83;;;7.40;99.90;;;;;;5046763;28;20536;-72
2023/12/18 05:55:24;;;;;;;29.35;17.13;;;7.40;99.90;;;;;;5046395;28;20037;-72
2023/12/18 05:57:50;;;;;;;36.40;18.23;;;7.40;99.90;;;;;;5045392;28;20075;-72
2023/12/18 06:00:18;;;;;;;33.90;19.27;;;7.40;99.90;;;;;;5046205;28;20029;-72
2023/12/18 06:02:43;;;;;;;31.67;18.27;;;7.40;99.90;;;;;;5045406;28;20053;-72
2023/12/18 06:05:09;;;;;;;38.38;19.75;;;7.40;99.90;;;;;;5031512;28;20344;-72
2023/12/18 06:07:35;;;;;;;31.08;19.02;;;7.40;99.90;;;;;;5046831;28;20467;-72
2023/12/18 06:10:00;;;;;;;35.92;19.02;;;7.40;99.90;;;;;;5046150;28;20130;-72
2023/12/18 06:12:26;;;;;;;36.30;18.95;;;7.40;99.90;;;;;;5046937;28;20110;-73
2023/12/18 06:14:52;;;;;;;35.47;18.52;;;7.40;99.90;;;;;;5046113;28;20036;-72
2023/12/18 06:17:17;;;;;;;40.60;20.67;;;7.40;99.90;;;;;;5046720;28;20108;-72
2023/12/18 06:19:43;;;;;;;36.72;19.77;;;7.40;99.90;;;;;;5044753;28;20160;-72
2023/12/18 06:22:10;;;;;;;38.38;19.02;;;7.40;99.90;;;;;;5032759;28;20048;-72
2023/12/18 06:24:38;;;;;;;32.70;18.55;;;7.40;99.90;;;;;;5046070;28;20788;-72
2023/12/18 06:27:04;;;;;;;32.40;18.95;;;7.40;99.90;;;;;;5046708;28;20029;-73
2023/12/18 06:29:30;;;;;;;29.75;19.30;;;7.40;99.90;;;;;;5045086;28;20035;-72
2023/12/18 06:31:55;;;;;;;40.97;19.83;;;7.40;99.90;;;;;;5045064;28;20031;-73
2023/12/18 06:34:21;;;;;;;38.80;20.52;;;7.40;99.90;;;;;;5045048;28;20029;-73
2023/12/18 06:36:47;;;;;;;36.25;20.20;;;7.40;99.90;;;;;;5045978;28;20049;-73
2023/12/18 06:39:13;;;;;;;31.80;18.90;;;7.40;99.90;;;;;;5045972;28;20036;-72
2023/12/18 06:41:39;;;;;;;37.10;19.95;;;7.40;99.90;;;;;;5045695;28;20025;-72
2023/12/18 06:44:05;;;;;;;37.42;19.52;;;7.40;99.90;;;;;;5045866;28;20025;-72
2023/12/18 06:46:32;;;;;;;32.50;19.15;;;7.50;99.90;;;;;;5043862;28;20035;-73
2023/12/18 06:48:58;;;;;;;34.58;20.00;;;7.40;99.90;;;;;;5046141;28;20037;-72
2023/12/18 06:51:24;;;;;;;33.40;19.23;;;7.50;99.90;;;;;;5046013;28;20154;-72
2023/12/18 06:53:50;;;;;;;37.95;19.08;;;7.40;99.90;;;;;;5046173;28;20471;-72
2023/12/18 06:56:16;;;;;;;37.35;19.95;;;7.40;99.90;;;;;;5045951;28;20036;-72
2023/12/18 06:58:41;;;;;;;36.00;19.15;;;7.40;99.90;;;;;;5044635;28;20021;-72
2023/12/18 07:01:07;;;;;;;36.38;20.33;;;7.50;99.90;;;;;;5045740;28;20029;-72
2023/12/18 07:03:33;;;;;;;35.92;19.23;;;7.50;99.90;;;;;;5048226;28;20142;-72
2023/12/18 07:05:59;;;;;;;38.08;18.60;;;7.50;99.90;;;;;;5036211;28;20125;-72
2023/12/18 07:08:25;;;;;;;33.30;20.15;;;7.50;99.90;;;;;;5044611;28;20474;-72
2023/12/18 07:10:51;;;;;;;34.50;18.90;;;7.50;99.90;;;;;;5044195;28;20017;-72
2023/12/18 07:13:17;;;;;;;39.70;19.73;;;7.50;99.90;;;;;;5045964;28;20028;-72
2023/12/18 07:15:43;;;;;;;33.08;18.65;;;7.50;99.90;;;;;;5046474;28;20391;-72
2023/12/18 07:18:09;;;;;;;31.40;19.05;;;7.50;99.90;;;;;;5049009;28;20017;-72
2023/12/18 07:20:35;;;;;;;30.98;18.48;;;7.50;99.90;;;;;;5045099;28;20458;-72
2023/12/18 07:23:03;;;;;;;35.78;18.67;;;7.60;99.90;;;;;;5046406;28;20022;-72
2023/12/18 07:25:28;;;;;;;37.15;20.70;;;7.50;99.90;;;;;;5044775;28;20037;-72
2023/12/18 07:27:54;;;;;;;36.33;19.40;;;7.50;99.90;;;;;;5046229;28;20508;-72
2023/12/18 07:30:20;;;;;;;37.95;19.40;;;7.60;99.90;;;;;;5043612;28;20534;-72
2023/12/18 07:32:45;;;;;;;34.17;18.75;;;7.60;99.90;;;;;;5043827;28;20036;-72
2023/12/18 07:35:11;;;;;;;37.05;20.17;;;7.60;99.90;;;;;;5048739;28;20078;-72
2023/12/18 07:37:37;;;;;;;42.65;19.75;;;7.60;99.90;;;;;;5036620;28;20045;-72
2023/12/18 07:40:03;;;;;;;33.40;18.70;;;7.60;99.90;;;;;;5036217;28;20029;-72
2023/12/18 07:42:29;;;;;;;32.95;18.13;;;7.60;99.90;;;;;;5046930;28;20029;-72
2023/12/18 07:44:55;;;;;;;36.95;18.65;;;7.60;99.90;;;;;;5046832;28;20071;-73
2023/12/18 07:47:20;;;;;;;38.00;20.08;;;7.60;99.90;;;;;;5041529;28;20079;-72
2023/12/18 07:49:48;;;;;;;37.63;19.17;;;7.60;99.90;;;;;;5044136;28;20044;-72
2023/12/18 07:52:14;;;;;;;33.28;18.00;;;7.60;99.90;;;;;;5042961;28;20026;-72
2023/12/18 07:54:39;;;;;;;30.55;18.50;;;7.60;99.90;;;;;;5042224;28;20082;-72
2023/12/18 07:57:05;;;;;;;31.25;17.95;;;7.60;99.90;;;;;;5047142;28;20023;-72
2023/12/18 07:59:31;;;;;;;30.58;19.70;;;7.60;99.90;;;;;;5048629;28;20072;-72
2023/12/18 08:01:56;;;;;;;37.30;19.65;;;7.60;99.90;;;;;;5047868;28;20025;-72
2023/12/18 08:04:22;;;;;;;33.47;19.00;;;7.60;99.90;;;;;;5048161;28;20440;-72
2023/12/18 08:06:51;;;;;;;39.05;19.52;;;7.60;99.90;;;;;;5037127;28;20565;-71
2023/12/18 08:09:16;;;;;;;41.70;20.63;;;7.60;99.90;;;;;;5037472;28;20029;-72
2023/12/18 08:11:42;;;;;;;33.40;19.38;;;7.60;99.90;;;;;;5047865;28;20024;-72
2023/12/18 08:14:09;;;;;;;31.92;18.23;;;7.60;99.90;;;;;;5044530;28;20031;-72
2023/12/18 08:16:34;;;;;;;32.40;18.33;;;7.60;99.90;;;;;;5039718;28;20032;-72
2023/12/18 08:19:00;;;;;;;37.95;18.90;;;7.60;99.90;;;;;;5042208;28;20467;-72
2023/12/18 08:21:26;;;;;;;31.40;17.77;;;7.60;99.90;;;;;;5047929;28;20029;-72
2023/12/18 08:23:52;;;;;;;37.55;19.83;;;7.60;99.90;;;;;;5047784;28;20025;-72
2023/12/18 08:26:18;;;;;;;34.50;18.15;;;7.70;99.90;;;;;;5054167;28;20081;-72
2023/12/18 08:28:44;;;;;;;35.20;17.60;;;7.60;99.90;;;;;;5047125;28;20020;-72
2023/12/18 08:31:11;;;;;;;34.00;17.92;;;7.70;99.90;;;;;;5046510;28;20086;-72
2023/12/18 08:33:40;;;;;;;33.78;19.30;;;7.70;99.90;;;;;;5046624;28;20017;-72
2023/12/18 08:36:06;;;;;;;34.60;18.65;;;7.70;99.90;;;;;;5046973;28;20036;-72
2023/12/18 08:38:31;;;;;;;34.17;18.58;;;7.70;99.90;;;;;;5036088;28;20054;-72
2023/12/18 08:40:57;;;;;;;29.48;16.60;;;7.70;99.90;;;;;;5039219;28;20017;-72
2023/12/18 08:43:23;;;;;;;31.92;17.63;;;7.70;99.90;;;;;;5037770;28;20021;-72
2023/12/18 08:45:48;;;;;;;33.08;18.48;;;7.80;99.90;;;;;;5039866;28;20021;-72
2023/12/18 08:48:15;;;;;;;38.28;20.10;;;7.80;99.90;;;;;;5043756;28;20116;-72
2023/12/18 08:50:41;;;;;;;33.15;17.25;;;7.80;99.90;;;;;;5033054;28;20374;-72
2023/12/18 08:53:07;;;;;;;32.15;18.15;;;7.80;99.90;;;;;;5037284;28;20031;-72
2023/12/18 08:55:38;;;;;;;29.10;17.90;;;7.80;99.90;;;;;;5035021;28;20036;-72
2023/12/18 08:58:05;;;;;;;37.92;18.20;;;7.80;99.90;;;;;;5045990;28;20104;-72
2023/12/18 09:00:31;;;;;;;33.28;19.27;;;7.80;99.90;;;;;;5041386;28;20049;-72
2023/12/18 09:02:58;;;;;;;31.65;17.65;;;7.80;99.90;;;;;;5044342;28;20517;-72
2023/12/18 09:05:24;;;;;;;28.45;17.58;;;7.80;99.90;;;;;;5032115;28;20052;-73
2023/12/18 09:07:50;;;;;;;29.05;18.63;;;7.90;99.90;;;;;;5039321;28;20478;-72
2023/12/18 09:10:17;;;;;;;33.35;17.83;;;7.90;99.90;;;;;;5040231;28;20056;-73
2023/12/18 09:12:44;;;;;;;32.20;17.25;;;7.90;99.90;;;;;;5038762;28;20017;-72
2023/12/18 09:15:10;;;;;;;36.65;18.38;;;7.90;99.90;;;;;;5040939;28;20398;-72
2023/12/18 09:17:36;;;;;;;34.88;17.45;;;8.00;99.90;;;;;;5035720;28;20033;-72
2023/12/18 09:20:02;;;;;;;33.95;18.33;;;8.00;99.90;;;;;;5040962;28;20498;-72
2023/12/18 09:22:29;;;;;;;32.00;16.95;;;8.00;99.90;;;;;;5044974;28;20052;-72
2023/12/18 09:24:55;;;;;;;30.98;16.80;;;8.00;99.90;;;;;;5039821;28;20130;-72
2023/12/18 09:27:20;;;;;;;34.00;17.63;;;8.10;99.90;;;;;;5037576;28;20502;-72
2023/12/18 09:29:46;;;;;;;34.28;18.23;;;8.10;99.90;;;;;;5039988;28;20441;-72
2023/12/18 09:32:11;;;;;;;33.13;17.83;;;8.10;99.90;;;;;;5039251;28;20360;-72
2023/12/18 09:34:37;;;;;;;30.10;18.02;;;8.10;99.90;;;;;;5040436;28;20060;-72
2023/12/18 09:37:03;;;;;;;34.25;17.67;;;8.10;99.90;;;;;;5041902;28;20047;-72
2023/12/18 09:39:30;;;;;;;34.35;19.48;;;8.10;99.90;;;;;;5039697;28;20025;-72
2023/12/18 09:42:04;;;;;;;32.35;18.42;;;8.10;99.90;;;;;;5038134;28;20029;-72
2023/12/18 09:44:31;;;;;;;34.38;19.35;;;8.10;99.90;;;;;;5034159;28;20049;-72
2023/12/18 09:47:00;;;;;;;39.58;19.38;;;8.10;99.90;;;;;;5037180;28;20035;-72
2023/12/18 09:49:26;;;;;;;28.92;17.35;;;8.10;99.90;;;;;;5042616;28;20483;-72
2023/12/18 09:51:53;;;;;;;35.90;19.42;;;8.10;99.90;;;;;;5040736;28;20025;-72
2023/12/18 09:54:21;;;;;;;32.95;17.58;;;8.10;99.90;;;;;;5037043;28;20168;-72
2023/12/18 09:56:48;;;;;;;36.35;18.80;;;8.10;99.90;;;;;;5038788;28;20111;-72
2023/12/18 09:59:17;;;;;;;37.33;19.20;;;8.10;99.90;;;;;;5033848;28;20021;-72
2023/12/18 10:01:46;;;;;;;34.30;18.67;;;8.10;99.90;;;;;;5037090;28;20029;-72
2023/12/18 10:04:12;;;;;;;36.63;18.98;;;8.10;99.90;;;;;;5034661;28;20055;-72
2023/12/18 10:06:39;;;;;;;35.65;19.55;;;8.20;99.90;;;;;;5037460;28;20374;-72
2023/12/18 10:09:13;;;;;;;34.05;18.67;;;8.20;99.90;;;;;;5042883;28;20094;-71
2023/12/18 10:11:40;;;;;;;36.00;18.67;;;8.20;99.90;;;;;;5042209;28;20027;-72
2023/12/18 10:14:06;;;;;;;36.22;19.13;;;8.20;99.90;;;;;;5042396;28;20029;-71
2023/12/18 10:16:32;;;;;;;33.30;18.13;;;8.20;99.90;;;;;;5041997;28;20017;-72
2023/12/18 10:18:58;;;;;;;38.90;19.38;;;8.30;99.90;;;;;;5043941;28;20037;-72
2023/12/18 10:21:24;;;;;;;33.22;18.13;;;8.20;99.90;;;;;;5041982;28;20051;-72
2023/12/18 10:23:53;;;;;;;35.65;20.05;;;8.20;99.90;;;;;;5042221;28;20047;-72
2023/12/18 10:26:18;;;;;;;34.75;18.98;;;8.20;99.90;;;;;;5037949;28;20082;-72
2023/12/18 10:28:45;;;;;;;34.08;17.92;;;8.30;99.90;;;;;;5040163;28;20025;-72
2023/12/18 10:31:11;;;;;;;32.85;17.67;;;8.30;99.90;;;;;;5040610;28;20083;-72
2023/12/18 10:33:37;;;;;;;31.23;17.45;;;8.30;99.90;;;;;;5041778;28;20398;-72
2023/12/18 10:36:08;;;;;;;29.45;18.40;;;8.30;99.90;;;;;;5040473;28;20051;-72
2023/12/18 10:38:36;;;;;;;28.23;16.15;;;8.30;99.90;;;;;;5042573;28;20021;-72
2023/12/18 10:41:04;;;;;;;34.65;18.73;;;8.40;99.90;;;;;;5041506;28;20079;-72
2023/12/18 10:43:32;;;;;;;31.50;17.40;;;8.40;99.90;;;;;;5042044;28;20021;-72
2023/12/18 10:46:02;;;;;;;33.78;17.10;;;8.50;99.90;;;;;;5038150;28;20074;-72
2023/12/18 10:48:28;;;;;;;33.88;18.75;;;8.50;99.90;;;;;;5043918;28;20025;-72
2023/12/18 10:50:56;;;;;;;31.92;18.23;;;8.50;99.90;;;;;;5044071;28;20033;-72
2023/12/18 10:53:24;;;;;;;37.70;18.17;;;8.50;99.90;;;;;;5045051;28;20086;-72
2023/12/18 10:55:50;;;;;;;29.27;17.15;;;8.50;99.90;;;;;;5045015;28;20052;-72
2023/12/18 10:58:19;;;;;;;36.15;18.42;;;8.50;99.90;;;;;;5046089;28;20297;-73
2023/12/18 11:00:45;;;;;;;35.22;18.17;;;8.60;99.90;;;;;;5045586;28;20494;-72
2023/12/18 11:03:13;;;;;;;32.13;18.98;;;8.60;99.90;;;;;;5038779;28;20033;-72
2023/12/18 11:05:41;;;;;;;32.90;19.70;;;8.60;99.90;;;;;;5039034;28;20029;-72
2023/12/18 11:08:07;;;;;;;27.45;17.15;;;8.60;99.90;;;;;;5040688;28;20033;-72
2023/12/18 11:10:33;;;;;;;32.80;18.08;;;8.60;99.90;;;;;;5043962;28;20253;-72
2023/12/18 11:13:26;;;;;;;31.05;17.83;;;8.70;99.90;;;;;;5045867;28;20029;-72
2023/12/18 11:16:35;;;;;;;30.55;18.52;;;8.70;99.90;;;;;;5048107;28;20520;-72
2023/12/18 11:19:19;;;;;;;29.58;16.70;;;8.70;99.90;;;;;;5045564;28;20072;-72
2023/12/18 11:21:49;;;;;;;30.50;17.25;;;8.80;99.90;;;;;;5042977;28;20471;-72
2023/12/18 11:24:16;;;;;;;33.05;16.75;;;8.80;99.90;;;;;;5042206;28;20120;-72
2023/12/18 11:26:45;;;;;;;29.15;16.20;;;8.80;99.90;;;;;;5037607;28;20032;-72
2023/12/18 11:29:39;;;;;;;32.63;17.77;;;8.80;99.90;;;;;;5043194;28;20029;-72
2023/12/18 11:32:06;;;;;;;33.55;17.00;;;8.90;99.90;;;;;;5043660;28;20071;-72
2023/12/18 11:34:31;;;;;;;34.70;17.75;;;8.90;99.90;;;;;;5030249;28;20029;-71
2023/12/18 11:36:59;;;;;;;30.98;16.70;;;8.80;99.90;;;;;;5036300;28;20110;-72
2023/12/18 11:39:37;;;;;;;27.38;16.80;;;8.80;99.90;;;;;;5038042;28;20059;-72
2023/12/18 11:42:03;;;;;;;31.95;18.05;;;8.80;99.90;;;;;;5034833;28;20035;-72
2023/12/18 11:44:28;;;;;;;28.52;17.00;;;8.80;99.90;;;;;;5042497;28;20033;-72
2023/12/18 11:46:54;;;;;;;40.30;18.33;;;8.80;99.90;;;;;;5042985;28;20159;-72
2023/12/18 11:49:20;;;;;;;31.20;17.25;;;8.80;99.90;;;;;;5043644;28;20017;-72
2023/12/18 11:51:49;;;;;;;30.83;17.70;;;8.80;99.90;;;;;;5036410;28;20478;-72
2023/12/18 11:54:18;;;;;;;28.00;17.25;;;8.80;99.90;;;;;;5044091;28;20021;-71
2023/12/18 11:56:44;;;;;;;35.25;17.83;;;8.80;99.90;;;;;;5037940;28;20059;-72
2023/12/18 11:59:10;;;;;;;30.88;16.83;;;8.80;99.90;;;;;;5042683;28;20048;-72
2023/12/18 12:01:37;;;;;;;31.55;17.42;;;8.80;99.90;;;;;;5033690;28;20029;-73
2023/12/18 12:04:03;;;;;;;29.45;16.67;;;8.80;99.90;;;;;;5039625;28;20082;-73
2023/12/18 12:06:30;;;;;;;29.23;17.50;;;8.90;99.90;;;;;;5036347;28;20024;-72
2023/12/18 12:08:56;;;;;;;33.03;18.40;;;8.90;99.90;;;;;;5036713;28;20467;-71
2023/12/18 12:11:22;;;;;;;30.52;16.38;;;8.90;99.90;;;;;;5036789;28;20115;-72
2023/12/18 12:13:53;;;;;;;29.40;17.30;;;8.90;99.90;;;;;;5039475;28;20029;-72
2023/12/18 12:16:19;;;;;;;;;;;8.90;99.90;;;;;;5037066;28;20492;-72
2023/12/18 12:18:50;;;;;;;28.88;17.23;;;8.80;99.90;;;;;;5036359;28;19912;-72
2023/12/18 12:21:17;;;;;;;31.35;17.30;;;8.80;99.90;;;;;;5037704;28;20140;-72
2023/12/18 12:23:45;;;;;;;27.20;16.50;;;8.80;99.90;;;;;;5039824;28;20024;-72
2023/12/18 12:26:12;;;;;;;33.25;17.45;;;8.80;99.90;;;;;;5037684;28;20585;-72
2023/12/18 12:28:39;;;;;;;34.05;17.25;;;8.80;99.90;;;;;;5037850;28;20478;-72
2023/12/18 12:31:05;;;;;;;34.65;16.95;;;8.90;99.90;;;;;;5035743;28;20028;-72
2023/12/18 12:33:42;;;;;;;31.58;17.67;;;8.90;99.90;;;;;;5036286;28;20033;-72